sensor_id;sensor_type;location;lat;lon;timestamp;P1;durP1;ratioP1;P2;durP2;ratioP2
24644;SDS011;12780;45.502;9.146;2022-07-29T00:02:14;2.17;;;1.50;;
24644;SDS011;12780;45.502;9.146;2022-07-29T00:04:39;7.53;;;1.60;;
24644;SDS011;12780;45.502;9.146;2022-07-29T00:07:05;2.00;;;1.60;;
24644;SDS011;12780;45.502;9.146;2022-07-29T00:09:31;2.67;;;1.67;;
24644;SDS011;12780;45.502;9.146;2022-07-29T00:11:59;6.32;;;1.77;;
24644;SDS011;12780;45.502;9.146;2022-07-29T00:14:26;3.75;;;2.00;;
24644;SDS011;12780;45.502;9.146;2022-07-29T00:16:53;3.17;;;1.70;;
24644;SDS011;12780;45.502;9.146;2022-07-29T00:19:19;2.70;;;1.90;;
24644;SDS011;12780;45.502;9.146;2022-07-29T00:21:44;7.13;;;1.73;;
24644;SDS011;12780;45.502;9.146;2022-07-29T00:24:10;3.28;;;1.60;;
24644;SDS011;12780;45.502;9.146;2022-07-29T00:26:36;8.02;;;1.70;;
24644;SDS011;12780;45.502;9.146;2022-07-29T00:29:02;4.55;;;1.75;;
24644;SDS011;12780;45.502;9.146;2022-07-29T00:31:28;2.50;;;1.65;;
24644;SDS011;12780;45.502;9.146;2022-07-29T00:33:54;5.35;;;1.80;;
24644;SDS011;12780;45.502;9.146;2022-07-29T00:36:20;2.70;;;1.50;;
24644;SDS011;12780;45.502;9.146;2022-07-29T00:38:49;3.83;;;1.45;;
24644;SDS011;12780;45.502;9.146;2022-07-29T00:41:15;3.20;;;1.73;;
24644;SDS011;12780;45.502;9.146;2022-07-29T00:43:42;3.08;;;1.40;;
24644;SDS011;12780;45.502;9.146;2022-07-29T00:46:08;3.08;;;1.70;;
24644;SDS011;12780;45.502;9.146;2022-07-29T00:48:34;2.97;;;1.63;;
24644;SDS011;12780;45.502;9.146;2022-07-29T00:50:59;2.42;;;1.75;;
24644;SDS011;12780;45.502;9.146;2022-07-29T00:53:28;4.38;;;1.70;;
24644;SDS011;12780;45.502;9.146;2022-07-29T00:55:55;7.57;;;1.67;;
24644;SDS011;12780;45.502;9.146;2022-07-29T00:58:21;4.50;;;1.60;;
24644;SDS011;12780;45.502;9.146;2022-07-29T01:00:47;3.70;;;1.60;;
24644;SDS011;12780;45.502;9.146;2022-07-29T01:03:13;4.13;;;1.52;;
24644;SDS011;12780;45.502;9.146;2022-07-29T01:05:39;3.67;;;1.70;;
24644;SDS011;12780;45.502;9.146;2022-07-29T01:08:07;5.13;;;1.70;;
24644;SDS011;12780;45.502;9.146;2022-07-29T01:10:33;2.70;;;1.60;;
24644;SDS011;12780;45.502;9.146;2022-07-29T01:13:02;5.20;;;1.70;;
24644;SDS011;12780;45.502;9.146;2022-07-29T01:15:29;3.65;;;1.80;;
24644;SDS011;12780;45.502;9.146;2022-07-29T01:18:04;4.65;;;1.73;;
24644;SDS011;12780;45.502;9.146;2022-07-29T01:20:37;3.83;;;2.00;;
24644;SDS011;12780;45.502;9.146;2022-07-29T01:31:26;4.60;;;1.85;;
24644;SDS011;12780;45.502;9.146;2022-07-29T01:33:58;2.75;;;1.60;;
24644;SDS011;12780;45.502;9.146;2022-07-29T01:39:42;3.97;;;1.90;;
24644;SDS011;12780;45.502;9.146;2022-07-29T01:42:01;6.00;;;1.42;;
24644;SDS011;12780;45.502;9.146;2022-07-29T01:44:33;3.00;;;1.50;;
24644;SDS011;12780;45.502;9.146;2022-07-29T01:47:05;3.22;;;1.80;;
24644;SDS011;12780;45.502;9.146;2022-07-29T01:49:39;3.97;;;1.60;;
24644;SDS011;12780;45.502;9.146;2022-07-29T01:52:13;2.63;;;1.33;;
24644;SDS011;12780;45.502;9.146;2022-07-29T01:55:01;2.58;;;1.42;;
24644;SDS011;12780;45.502;9.146;2022-07-29T01:57:32;2.33;;;1.50;;
24644;SDS011;12780;45.502;9.146;2022-07-29T02:00:00;1.80;;;1.50;;
24644;SDS011;12780;45.502;9.146;2022-07-29T02:02:28;4.38;;;1.42;;
24644;SDS011;12780;45.502;9.146;2022-07-29T02:04:56;2.92;;;1.60;;
24644;SDS011;12780;45.502;9.146;2022-07-29T02:07:23;2.78;;;1.50;;
24644;SDS011;12780;45.502;9.146;2022-07-29T02:09:53;3.00;;;1.38;;
24644;SDS011;12780;45.502;9.146;2022-07-29T02:12:20;2.20;;;1.60;;
24644;SDS011;12780;45.502;9.146;2022-07-29T02:14:49;3.38;;;1.40;;
24644;SDS011;12780;45.502;9.146;2022-07-29T02:17:25;5.30;;;1.75;;
24644;SDS011;12780;45.502;9.146;2022-07-29T02:19:57;3.00;;;1.52;;
24644;SDS011;12780;45.502;9.146;2022-07-29T02:22:25;3.92;;;1.63;;
24644;SDS011;12780;45.502;9.146;2022-07-29T02:24:54;1.83;;;1.50;;
24644;SDS011;12780;45.502;9.146;2022-07-29T02:27:22;6.30;;;1.70;;
24644;SDS011;12780;45.502;9.146;2022-07-29T02:29:50;3.42;;;1.40;;
24644;SDS011;12780;45.502;9.146;2022-07-29T02:32:18;2.53;;;1.50;;
24644;SDS011;12780;45.502;9.146;2022-07-29T02:34:45;2.92;;;1.55;;
24644;SDS011;12780;45.502;9.146;2022-07-29T02:37:12;6.75;;;1.88;;
24644;SDS011;12780;45.502;9.146;2022-07-29T02:39:40;2.58;;;1.70;;
24644;SDS011;12780;45.502;9.146;2022-07-29T02:42:10;2.92;;;1.70;;
24644;SDS011;12780;45.502;9.146;2022-07-29T02:44:38;1.90;;;1.40;;
24644;SDS011;12780;45.502;9.146;2022-07-29T02:47:12;1.85;;;1.50;;
24644;SDS011;12780;45.502;9.146;2022-07-29T02:49:48;3.58;;;1.60;;
24644;SDS011;12780;45.502;9.146;2022-07-29T02:52:34;4.30;;;1.60;;
24644;SDS011;12780;45.502;9.146;2022-07-29T03:00:12;4.18;;;1.60;;
24644;SDS011;12780;45.502;9.146;2022-07-29T03:02:40;2.05;;;1.40;;
24644;SDS011;12780;45.502;9.146;2022-07-29T03:05:09;2.17;;;1.48;;
24644;SDS011;12780;45.502;9.146;2022-07-29T03:07:40;5.18;;;1.70;;
24644;SDS011;12780;45.502;9.146;2022-07-29T03:10:10;2.45;;;1.48;;
24644;SDS011;12780;45.502;9.146;2022-07-29T03:12:37;8.70;;;1.75;;
24644;SDS011;12780;45.502;9.146;2022-07-29T03:15:04;2.42;;;1.50;;
24644;SDS011;12780;45.502;9.146;2022-07-29T03:17:31;3.30;;;1.60;;
24644;SDS011;12780;45.502;9.146;2022-07-29T03:19:57;2.40;;;1.48;;
24644;SDS011;12780;45.502;9.146;2022-07-29T03:22:24;1.77;;;1.30;;
24644;SDS011;12780;45.502;9.146;2022-07-29T03:24:50;2.22;;;1.40;;
24644;SDS011;12780;45.502;9.146;2022-07-29T03:27:16;1.75;;;1.30;;
24644;SDS011;12780;45.502;9.146;2022-07-29T03:29:41;3.47;;;1.40;;
24644;SDS011;12780;45.502;9.146;2022-07-29T03:32:07;4.03;;;1.65;;
24644;SDS011;12780;45.502;9.146;2022-07-29T03:34:33;4.28;;;1.60;;
24644;SDS011;12780;45.502;9.146;2022-07-29T03:36:58;3.13;;;1.48;;
24644;SDS011;12780;45.502;9.146;2022-07-29T03:39:25;2.40;;;1.58;;
24644;SDS011;12780;45.502;9.146;2022-07-29T03:41:55;3.42;;;1.80;;
24644;SDS011;12780;45.502;9.146;2022-07-29T03:44:23;4.82;;;1.67;;
24644;SDS011;12780;45.502;9.146;2022-07-29T03:46:51;5.65;;;1.70;;
24644;SDS011;12780;45.502;9.146;2022-07-29T03:49:19;4.00;;;1.67;;
24644;SDS011;12780;45.502;9.146;2022-07-29T03:51:46;3.60;;;1.77;;
24644;SDS011;12780;45.502;9.146;2022-07-29T03:54:13;4.78;;;1.80;;
24644;SDS011;12780;45.502;9.146;2022-07-29T03:56:42;5.90;;;1.90;;
24644;SDS011;12780;45.502;9.146;2022-07-29T03:59:12;6.78;;;1.60;;
24644;SDS011;12780;45.502;9.146;2022-07-29T04:01:42;4.25;;;1.60;;
24644;SDS011;12780;45.502;9.146;2022-07-29T04:04:08;2.95;;;1.60;;
24644;SDS011;12780;45.502;9.146;2022-07-29T04:06:38;2.40;;;1.52;;
24644;SDS011;12780;45.502;9.146;2022-07-29T04:09:05;3.28;;;1.50;;
24644;SDS011;12780;45.502;9.146;2022-07-29T04:11:30;5.03;;;2.00;;
24644;SDS011;12780;45.502;9.146;2022-07-29T04:13:56;7.50;;;2.22;;
24644;SDS011;12780;45.502;9.146;2022-07-29T04:16:22;3.47;;;1.48;;
24644;SDS011;12780;45.502;9.146;2022-07-29T04:18:47;2.03;;;1.40;;
24644;SDS011;12780;45.502;9.146;2022-07-29T04:21:13;6.18;;;1.77;;
24644;SDS011;12780;45.502;9.146;2022-07-29T04:23:39;2.45;;;1.52;;
24644;SDS011;12780;45.502;9.146;2022-07-29T04:26:06;3.97;;;1.65;;
24644;SDS011;12780;45.502;9.146;2022-07-29T04:28:34;3.05;;;1.63;;
24644;SDS011;12780;45.502;9.146;2022-07-29T04:31:00;4.28;;;1.85;;
24644;SDS011;12780;45.502;9.146;2022-07-29T04:33:26;4.57;;;1.50;;
24644;SDS011;12780;45.502;9.146;2022-07-29T04:35:51;9.93;;;1.90;;
24644;SDS011;12780;45.502;9.146;2022-07-29T04:38:17;4.53;;;1.60;;
24644;SDS011;12780;45.502;9.146;2022-07-29T04:40:42;4.00;;;1.30;;
24644;SDS011;12780;45.502;9.146;2022-07-29T04:43:08;5.05;;;1.60;;
24644;SDS011;12780;45.502;9.146;2022-07-29T04:45:34;5.38;;;1.80;;
24644;SDS011;12780;45.502;9.146;2022-07-29T04:47:59;2.67;;;1.58;;
24644;SDS011;12780;45.502;9.146;2022-07-29T04:50:25;3.45;;;1.52;;
24644;SDS011;12780;45.502;9.146;2022-07-29T04:52:51;5.20;;;1.70;;
24644;SDS011;12780;45.502;9.146;2022-07-29T04:55:16;3.65;;;1.63;;
24644;SDS011;12780;45.502;9.146;2022-07-29T04:57:42;4.45;;;1.80;;
24644;SDS011;12780;45.502;9.146;2022-07-29T05:00:08;4.75;;;1.70;;
24644;SDS011;12780;45.502;9.146;2022-07-29T05:02:34;2.85;;;1.65;;
24644;SDS011;12780;45.502;9.146;2022-07-29T05:05:00;5.93;;;2.33;;
24644;SDS011;12780;45.502;9.146;2022-07-29T05:07:26;3.22;;;1.80;;
24644;SDS011;12780;45.502;9.146;2022-07-29T05:09:51;2.67;;;1.65;;
24644;SDS011;12780;45.502;9.146;2022-07-29T05:12:18;4.35;;;1.90;;
24644;SDS011;12780;45.502;9.146;2022-07-29T05:14:43;3.65;;;1.70;;
24644;SDS011;12780;45.502;9.146;2022-07-29T05:17:09;4.45;;;1.75;;
24644;SDS011;12780;45.502;9.146;2022-07-29T05:19:35;4.88;;;1.60;;
24644;SDS011;12780;45.502;9.146;2022-07-29T05:22:00;2.85;;;1.60;;
24644;SDS011;12780;45.502;9.146;2022-07-29T05:24:26;5.05;;;1.40;;
24644;SDS011;12780;45.502;9.146;2022-07-29T05:26:52;4.25;;;1.63;;
24644;SDS011;12780;45.502;9.146;2022-07-29T05:29:18;3.55;;;1.80;;
24644;SDS011;12780;45.502;9.146;2022-07-29T05:31:43;3.80;;;1.73;;
24644;SDS011;12780;45.502;9.146;2022-07-29T05:34:09;7.55;;;2.05;;
24644;SDS011;12780;45.502;9.146;2022-07-29T05:36:35;6.25;;;1.60;;
24644;SDS011;12780;45.502;9.146;2022-07-29T05:39:00;6.57;;;1.88;;
24644;SDS011;12780;45.502;9.146;2022-07-29T05:41:26;3.53;;;1.70;;
24644;SDS011;12780;45.502;9.146;2022-07-29T05:43:52;4.13;;;1.75;;
24644;SDS011;12780;45.502;9.146;2022-07-29T05:46:17;5.20;;;1.73;;
24644;SDS011;12780;45.502;9.146;2022-07-29T05:48:43;4.10;;;1.77;;
24644;SDS011;12780;45.502;9.146;2022-07-29T05:51:08;4.40;;;1.70;;
24644;SDS011;12780;45.502;9.146;2022-07-29T05:53:35;4.15;;;1.67;;
24644;SDS011;12780;45.502;9.146;2022-07-29T05:56:02;7.65;;;1.65;;
24644;SDS011;12780;45.502;9.146;2022-07-29T05:58:30;4.07;;;1.70;;
24644;SDS011;12780;45.502;9.146;2022-07-29T06:00:55;2.03;;;1.52;;
24644;SDS011;12780;45.502;9.146;2022-07-29T06:03:24;5.93;;;1.88;;
24644;SDS011;12780;45.502;9.146;2022-07-29T06:05:50;8.68;;;2.20;;
24644;SDS011;12780;45.502;9.146;2022-07-29T06:08:16;16.67;;;2.92;;
24644;SDS011;12780;45.502;9.146;2022-07-29T06:10:42;6.22;;;2.28;;
24644;SDS011;12780;45.502;9.146;2022-07-29T06:13:08;11.02;;;2.40;;
24644;SDS011;12780;45.502;9.146;2022-07-29T06:15:34;9.30;;;2.90;;
24644;SDS011;12780;45.502;9.146;2022-07-29T06:18:00;10.65;;;2.30;;
24644;SDS011;12780;45.502;9.146;2022-07-29T06:20:26;7.30;;;1.90;;
24644;SDS011;12780;45.502;9.146;2022-07-29T06:22:54;6.28;;;2.20;;
24644;SDS011;12780;45.502;9.146;2022-07-29T06:25:20;6.03;;;2.63;;
24644;SDS011;12780;45.502;9.146;2022-07-29T06:27:45;6.45;;;1.98;;
24644;SDS011;12780;45.502;9.146;2022-07-29T06:30:11;9.38;;;2.65;;
24644;SDS011;12780;45.502;9.146;2022-07-29T06:32:37;12.65;;;2.20;;
24644;SDS011;12780;45.502;9.146;2022-07-29T06:35:03;15.80;;;2.70;;
24644;SDS011;12780;45.502;9.146;2022-07-29T06:37:29;3.05;;;2.08;;
24644;SDS011;12780;45.502;9.146;2022-07-29T06:39:55;11.05;;;2.30;;
24644;SDS011;12780;45.502;9.146;2022-07-29T06:42:42;6.93;;;2.55;;
24644;SDS011;12780;45.502;9.146;2022-07-29T06:45:09;9.77;;;2.17;;
24644;SDS011;12780;45.502;9.146;2022-07-29T06:47:36;7.15;;;2.20;;
24644;SDS011;12780;45.502;9.146;2022-07-29T06:50:02;11.65;;;2.47;;
24644;SDS011;12780;45.502;9.146;2022-07-29T06:52:28;12.90;;;2.35;;
24644;SDS011;12780;45.502;9.146;2022-07-29T06:54:54;5.97;;;2.20;;
24644;SDS011;12780;45.502;9.146;2022-07-29T06:57:20;5.65;;;2.45;;
24644;SDS011;12780;45.502;9.146;2022-07-29T06:59:46;6.60;;;2.30;;
24644;SDS011;12780;45.502;9.146;2022-07-29T07:02:12;6.68;;;2.30;;
24644;SDS011;12780;45.502;9.146;2022-07-29T07:04:38;5.82;;;2.10;;
24644;SDS011;12780;45.502;9.146;2022-07-29T07:07:04;6.70;;;1.90;;
24644;SDS011;12780;45.502;9.146;2022-07-29T07:09:29;6.32;;;2.60;;
24644;SDS011;12780;45.502;9.146;2022-07-29T07:11:55;4.35;;;2.80;;
24644;SDS011;12780;45.502;9.146;2022-07-29T07:14:21;6.63;;;2.20;;
24644;SDS011;12780;45.502;9.146;2022-07-29T07:16:47;3.83;;;1.83;;
24644;SDS011;12780;45.502;9.146;2022-07-29T07:19:12;7.15;;;2.28;;
24644;SDS011;12780;45.502;9.146;2022-07-29T07:21:38;4.95;;;2.20;;
24644;SDS011;12780;45.502;9.146;2022-07-29T07:24:04;10.57;;;2.65;;
24644;SDS011;12780;45.502;9.146;2022-07-29T07:26:30;5.82;;;2.33;;
24644;SDS011;12780;45.502;9.146;2022-07-29T07:28:56;9.77;;;2.20;;
24644;SDS011;12780;45.502;9.146;2022-07-29T07:31:22;12.05;;;2.45;;
24644;SDS011;12780;45.502;9.146;2022-07-29T07:33:48;3.08;;;1.83;;
24644;SDS011;12780;45.502;9.146;2022-07-29T07:36:13;5.32;;;2.13;;
24644;SDS011;12780;45.502;9.146;2022-07-29T07:38:39;4.47;;;2.20;;
24644;SDS011;12780;45.502;9.146;2022-07-29T07:41:04;7.75;;;2.72;;
24644;SDS011;12780;45.502;9.146;2022-07-29T07:43:30;6.00;;;2.38;;
24644;SDS011;12780;45.502;9.146;2022-07-29T07:45:56;6.55;;;2.22;;
24644;SDS011;12780;45.502;9.146;2022-07-29T07:48:22;5.55;;;2.63;;
24644;SDS011;12780;45.502;9.146;2022-07-29T07:50:48;5.25;;;2.72;;
24644;SDS011;12780;45.502;9.146;2022-07-29T07:53:14;3.85;;;2.05;;
24644;SDS011;12780;45.502;9.146;2022-07-29T07:55:40;6.78;;;2.30;;
24644;SDS011;12780;45.502;9.146;2022-07-29T07:58:06;9.10;;;2.70;;
24644;SDS011;12780;45.502;9.146;2022-07-29T08:00:33;6.38;;;2.38;;
24644;SDS011;12780;45.502;9.146;2022-07-29T08:02:59;3.38;;;2.22;;
24644;SDS011;12780;45.502;9.146;2022-07-29T08:05:24;2.88;;;1.95;;
24644;SDS011;12780;45.502;9.146;2022-07-29T08:07:50;3.75;;;2.15;;
24644;SDS011;12780;45.502;9.146;2022-07-29T08:10:16;4.00;;;2.10;;
24644;SDS011;12780;45.502;9.146;2022-07-29T08:13:04;6.45;;;2.38;;
24644;SDS011;12780;45.502;9.146;2022-07-29T08:15:31;6.20;;;1.98;;
24644;SDS011;12780;45.502;9.146;2022-07-29T08:17:57;5.22;;;3.00;;
24644;SDS011;12780;45.502;9.146;2022-07-29T08:20:23;6.90;;;2.55;;
24644;SDS011;12780;45.502;9.146;2022-07-29T08:22:49;6.03;;;2.70;;
24644;SDS011;12780;45.502;9.146;2022-07-29T08:25:15;6.40;;;2.22;;
24644;SDS011;12780;45.502;9.146;2022-07-29T08:27:42;8.65;;;2.53;;
24644;SDS011;12780;45.502;9.146;2022-07-29T08:30:08;5.57;;;2.40;;
24644;SDS011;12780;45.502;9.146;2022-07-29T08:32:35;6.75;;;2.60;;
24644;SDS011;12780;45.502;9.146;2022-07-29T08:35:01;11.52;;;2.65;;
24644;SDS011;12780;45.502;9.146;2022-07-29T08:37:26;6.25;;;2.67;;
24644;SDS011;12780;45.502;9.146;2022-07-29T08:39:52;9.07;;;3.03;;
24644;SDS011;12780;45.502;9.146;2022-07-29T08:42:18;4.60;;;2.70;;
24644;SDS011;12780;45.502;9.146;2022-07-29T08:44:44;4.97;;;2.50;;
24644;SDS011;12780;45.502;9.146;2022-07-29T08:47:10;6.13;;;2.50;;
24644;SDS011;12780;45.502;9.146;2022-07-29T08:49:39;9.02;;;2.63;;
24644;SDS011;12780;45.502;9.146;2022-07-29T08:52:05;6.53;;;3.00;;
24644;SDS011;12780;45.502;9.146;2022-07-29T08:54:31;7.22;;;3.00;;
24644;SDS011;12780;45.502;9.146;2022-07-29T08:56:57;5.93;;;3.63;;
24644;SDS011;12780;45.502;9.146;2022-07-29T08:59:25;5.28;;;2.97;;
24644;SDS011;12780;45.502;9.146;2022-07-29T09:01:53;5.78;;;3.22;;
24644;SDS011;12780;45.502;9.146;2022-07-29T09:04:20;5.70;;;3.08;;
24644;SDS011;12780;45.502;9.146;2022-07-29T09:06:47;5.03;;;3.00;;
24644;SDS011;12780;45.502;9.146;2022-07-29T09:09:16;6.40;;;2.70;;
24644;SDS011;12780;45.502;9.146;2022-07-29T09:11:42;7.72;;;3.30;;
24644;SDS011;12780;45.502;9.146;2022-07-29T09:14:08;8.48;;;4.25;;
24644;SDS011;12780;45.502;9.146;2022-07-29T09:19:28;8.52;;;3.63;;
24644;SDS011;12780;45.502;9.146;2022-07-29T09:22:00;9.10;;;3.10;;
24644;SDS011;12780;45.502;9.146;2022-07-29T09:27:10;8.15;;;3.70;;
24644;SDS011;12780;45.502;9.146;2022-07-29T09:29:46;7.75;;;3.60;;
24644;SDS011;12780;45.502;9.146;2022-07-29T09:32:12;9.63;;;4.03;;
24644;SDS011;12780;45.502;9.146;2022-07-29T09:34:37;8.13;;;3.47;;
24644;SDS011;12780;45.502;9.146;2022-07-29T09:37:03;7.72;;;3.75;;
24644;SDS011;12780;45.502;9.146;2022-07-29T09:39:31;12.82;;;3.83;;
24644;SDS011;12780;45.502;9.146;2022-07-29T09:41:58;8.23;;;3.67;;
24644;SDS011;12780;45.502;9.146;2022-07-29T09:44:25;10.75;;;3.63;;
24644;SDS011;12780;45.502;9.146;2022-07-29T09:46:58;5.60;;;3.25;;
24644;SDS011;12780;45.502;9.146;2022-07-29T09:49:33;6.22;;;3.22;;
24644;SDS011;12780;45.502;9.146;2022-07-29T09:52:06;5.78;;;3.20;;
24644;SDS011;12780;45.502;9.146;2022-07-29T09:54:34;5.30;;;3.00;;
24644;SDS011;12780;45.502;9.146;2022-07-29T09:57:04;3.63;;;2.90;;
24644;SDS011;12780;45.502;9.146;2022-07-29T09:59:31;5.90;;;3.50;;
24644;SDS011;12780;45.502;9.146;2022-07-29T10:01:58;9.23;;;3.60;;
24644;SDS011;12780;45.502;9.146;2022-07-29T10:04:35;4.32;;;3.13;;
24644;SDS011;12780;45.502;9.146;2022-07-29T10:07:05;5.68;;;3.13;;
24644;SDS011;12780;45.502;9.146;2022-07-29T10:09:31;7.28;;;3.00;;
24644;SDS011;12780;45.502;9.146;2022-07-29T10:16:58;7.50;;;3.33;;
24644;SDS011;12780;45.502;9.146;2022-07-29T10:19:25;4.82;;;3.33;;
24644;SDS011;12780;45.502;9.146;2022-07-29T10:21:58;6.93;;;3.75;;
24644;SDS011;12780;45.502;9.146;2022-07-29T10:24:28;8.32;;;4.13;;
24644;SDS011;12780;45.502;9.146;2022-07-29T10:26:55;8.52;;;3.70;;
24644;SDS011;12780;45.502;9.146;2022-07-29T10:29:22;8.45;;;4.10;;
24644;SDS011;12780;45.502;9.146;2022-07-29T10:31:54;6.28;;;4.00;;
24644;SDS011;12780;45.502;9.146;2022-07-29T10:38:02;7.43;;;3.75;;
24644;SDS011;12780;45.502;9.146;2022-07-29T10:43:42;9.68;;;4.45;;
24644;SDS011;12780;45.502;9.146;2022-07-29T10:46:11;5.32;;;3.83;;
24644;SDS011;12780;45.502;9.146;2022-07-29T10:54:16;7.70;;;3.63;;
24644;SDS011;12780;45.502;9.146;2022-07-29T10:56:42;10.35;;;4.10;;
24644;SDS011;12780;45.502;9.146;2022-07-29T11:01:44;6.25;;;4.03;;
24644;SDS011;12780;45.502;9.146;2022-07-29T11:04:14;23.23;;;12.80;;
24644;SDS011;12780;45.502;9.146;2022-07-29T11:09:25;8.35;;;4.47;;
24644;SDS011;12780;45.502;9.146;2022-07-29T11:11:51;10.82;;;4.93;;
24644;SDS011;12780;45.502;9.146;2022-07-29T11:17:24;10.38;;;4.57;;
24644;SDS011;12780;45.502;9.146;2022-07-29T11:19:50;9.57;;;4.32;;
24644;SDS011;12780;45.502;9.146;2022-07-29T11:22:32;7.82;;;4.30;;
24644;SDS011;12780;45.502;9.146;2022-07-29T11:25:12;8.57;;;4.55;;
24644;SDS011;12780;45.502;9.146;2022-07-29T11:27:40;10.98;;;4.63;;
24644;SDS011;12780;45.502;9.146;2022-07-29T11:30:06;13.05;;;4.95;;
24644;SDS011;12780;45.502;9.146;2022-07-29T11:32:35;11.43;;;4.40;;
24644;SDS011;12780;45.502;9.146;2022-07-29T11:35:11;6.75;;;3.75;;
24644;SDS011;12780;45.502;9.146;2022-07-29T11:41:18;6.25;;;4.32;;
24644;SDS011;12780;45.502;9.146;2022-07-29T11:43:53;4.95;;;4.40;;
24644;SDS011;12780;45.502;9.146;2022-07-29T11:49:24;6.35;;;5.25;;
24644;SDS011;12780;45.502;9.146;2022-07-29T11:51:52;20.83;;;15.20;;
24644;SDS011;12780;45.502;9.146;2022-07-29T11:54:23;11.63;;;5.55;;
24644;SDS011;12780;45.502;9.146;2022-07-29T11:56:51;9.48;;;4.70;;
24644;SDS011;12780;45.502;9.146;2022-07-29T11:59:17;5.75;;;4.03;;
24644;SDS011;12780;45.502;9.146;2022-07-29T12:04:20;7.53;;;4.00;;
24644;SDS011;12780;45.502;9.146;2022-07-29T12:06:49;7.80;;;4.22;;
24644;SDS011;12780;45.502;9.146;2022-07-29T12:09:18;6.45;;;4.45;;
24644;SDS011;12780;45.502;9.146;2022-07-29T12:11:46;6.72;;;4.15;;
24644;SDS011;12780;45.502;9.146;2022-07-29T12:14:27;7.50;;;4.82;;
24644;SDS011;12780;45.502;9.146;2022-07-29T12:16:54;9.98;;;5.53;;
24644;SDS011;12780;45.502;9.146;2022-07-29T12:19:20;10.68;;;4.20;;
24644;SDS011;12780;45.502;9.146;2022-07-29T12:21:47;7.00;;;4.70;;
24644;SDS011;12780;45.502;9.146;2022-07-29T12:24:14;7.50;;;4.45;;
24644;SDS011;12780;45.502;9.146;2022-07-29T12:26:53;7.50;;;3.97;;
24644;SDS011;12780;45.502;9.146;2022-07-29T12:29:21;7.13;;;4.32;;
24644;SDS011;12780;45.502;9.146;2022-07-29T12:31:51;7.22;;;3.92;;
24644;SDS011;12780;45.502;9.146;2022-07-29T12:34:19;9.18;;;4.45;;
24644;SDS011;12780;45.502;9.146;2022-07-29T12:36:47;6.40;;;4.43;;
24644;SDS011;12780;45.502;9.146;2022-07-29T12:39:14;6.80;;;4.47;;
24644;SDS011;12780;45.502;9.146;2022-07-29T12:41:41;9.07;;;5.25;;
24644;SDS011;12780;45.502;9.146;2022-07-29T12:44:07;10.63;;;4.53;;
24644;SDS011;12780;45.502;9.146;2022-07-29T12:46:33;8.70;;;5.15;;
24644;SDS011;12780;45.502;9.146;2022-07-29T12:48:59;7.30;;;5.32;;
24644;SDS011;12780;45.502;9.146;2022-07-29T12:51:28;10.38;;;5.00;;
24644;SDS011;12780;45.502;9.146;2022-07-29T12:56:39;6.40;;;4.20;;
24644;SDS011;12780;45.502;9.146;2022-07-29T12:59:13;4.78;;;4.00;;
24644;SDS011;12780;45.502;9.146;2022-07-29T13:01:44;9.65;;;4.70;;
24644;SDS011;12780;45.502;9.146;2022-07-29T13:04:24;11.18;;;4.88;;
24644;SDS011;12780;45.502;9.146;2022-07-29T13:09:38;12.63;;;5.28;;
24644;SDS011;12780;45.502;9.146;2022-07-29T13:12:09;8.18;;;4.68;;
24644;SDS011;12780;45.502;9.146;2022-07-29T13:22:03;8.98;;;4.72;;
24644;SDS011;12780;45.502;9.146;2022-07-29T13:24:29;11.60;;;5.10;;
24644;SDS011;12780;45.502;9.146;2022-07-29T13:26:55;7.60;;;4.82;;
24644;SDS011;12780;45.502;9.146;2022-07-29T13:29:20;13.98;;;5.40;;
24644;SDS011;12780;45.502;9.146;2022-07-29T13:31:46;10.38;;;5.80;;
24644;SDS011;12780;45.502;9.146;2022-07-29T13:34:12;12.15;;;5.25;;
24644;SDS011;12780;45.502;9.146;2022-07-29T13:36:38;11.77;;;4.55;;
24644;SDS011;12780;45.502;9.146;2022-07-29T13:39:03;12.10;;;5.35;;
24644;SDS011;12780;45.502;9.146;2022-07-29T13:41:29;9.07;;;5.63;;
24644;SDS011;12780;45.502;9.146;2022-07-29T13:43:55;9.60;;;4.88;;
24644;SDS011;12780;45.502;9.146;2022-07-29T13:46:20;8.20;;;5.25;;
24644;SDS011;12780;45.502;9.146;2022-07-29T13:48:46;10.48;;;4.63;;
24644;SDS011;12780;45.502;9.146;2022-07-29T13:51:12;8.93;;;5.20;;
24644;SDS011;12780;45.502;9.146;2022-07-29T13:53:38;7.43;;;4.85;;
24644;SDS011;12780;45.502;9.146;2022-07-29T13:56:04;7.38;;;5.18;;
24644;SDS011;12780;45.502;9.146;2022-07-29T13:58:32;11.45;;;5.15;;
24644;SDS011;12780;45.502;9.146;2022-07-29T14:00:59;8.77;;;4.93;;
24644;SDS011;12780;45.502;9.146;2022-07-29T14:03:25;7.78;;;5.15;;
24644;SDS011;12780;45.502;9.146;2022-07-29T14:05:51;6.28;;;4.65;;
24644;SDS011;12780;45.502;9.146;2022-07-29T14:08:17;9.20;;;4.70;;
24644;SDS011;12780;45.502;9.146;2022-07-29T14:10:44;7.75;;;5.00;;
24644;SDS011;12780;45.502;9.146;2022-07-29T14:13:09;7.40;;;4.68;;
24644;SDS011;12780;45.502;9.146;2022-07-29T14:15:35;8.65;;;5.00;;
24644;SDS011;12780;45.502;9.146;2022-07-29T14:18:01;7.40;;;4.60;;
24644;SDS011;12780;45.502;9.146;2022-07-29T14:20:27;13.02;;;5.50;;
24644;SDS011;12780;45.502;9.146;2022-07-29T14:22:54;14.32;;;4.75;;
24644;SDS011;12780;45.502;9.146;2022-07-29T14:25:21;8.68;;;4.82;;
24644;SDS011;12780;45.502;9.146;2022-07-29T14:27:47;16.38;;;5.28;;
24644;SDS011;12780;45.502;9.146;2022-07-29T14:30:13;8.70;;;4.55;;
24644;SDS011;12780;45.502;9.146;2022-07-29T14:32:40;7.30;;;4.38;;
24644;SDS011;12780;45.502;9.146;2022-07-29T14:35:06;6.90;;;4.50;;
24644;SDS011;12780;45.502;9.146;2022-07-29T14:37:33;10.95;;;4.85;;
24644;SDS011;12780;45.502;9.146;2022-07-29T14:40:00;11.85;;;5.00;;
24644;SDS011;12780;45.502;9.146;2022-07-29T14:42:28;9.38;;;4.30;;
24644;SDS011;12780;45.502;9.146;2022-07-29T14:44:53;5.18;;;4.10;;
24644;SDS011;12780;45.502;9.146;2022-07-29T14:47:19;5.97;;;4.43;;
24644;SDS011;12780;45.502;9.146;2022-07-29T14:49:46;11.43;;;4.40;;
24644;SDS011;12780;45.502;9.146;2022-07-29T14:52:12;10.57;;;5.00;;
24644;SDS011;12780;45.502;9.146;2022-07-29T14:54:37;15.15;;;4.40;;
24644;SDS011;12780;45.502;9.146;2022-07-29T14:57:03;8.48;;;4.35;;
24644;SDS011;12780;45.502;9.146;2022-07-29T14:59:29;5.85;;;4.30;;
24644;SDS011;12780;45.502;9.146;2022-07-29T15:01:54;10.38;;;4.45;;
24644;SDS011;12780;45.502;9.146;2022-07-29T15:04:20;6.05;;;4.40;;
24644;SDS011;12780;45.502;9.146;2022-07-29T15:06:46;6.65;;;4.90;;
24644;SDS011;12780;45.502;9.146;2022-07-29T15:09:11;7.10;;;4.40;;
24644;SDS011;12780;45.502;9.146;2022-07-29T15:11:37;8.38;;;4.53;;
24644;SDS011;12780;45.502;9.146;2022-07-29T15:14:02;11.77;;;7.93;;
24644;SDS011;12780;45.502;9.146;2022-07-29T15:16:28;15.35;;;5.95;;
24644;SDS011;12780;45.502;9.146;2022-07-29T15:18:54;15.10;;;8.43;;
24644;SDS011;12780;45.502;9.146;2022-07-29T15:21:22;6.75;;;4.38;;
24644;SDS011;12780;45.502;9.146;2022-07-29T15:23:48;10.00;;;4.03;;
24644;SDS011;12780;45.502;9.146;2022-07-29T15:26:14;6.97;;;3.47;;
24644;SDS011;12780;45.502;9.146;2022-07-29T15:28:40;5.57;;;3.50;;
24644;SDS011;12780;45.502;9.146;2022-07-29T15:31:06;10.85;;;5.35;;
24644;SDS011;12780;45.502;9.146;2022-07-29T15:33:31;10.50;;;6.22;;
24644;SDS011;12780;45.502;9.146;2022-07-29T15:35:57;16.90;;;7.15;;
24644;SDS011;12780;45.502;9.146;2022-07-29T15:38:23;17.92;;;7.45;;
24644;SDS011;12780;45.502;9.146;2022-07-29T15:40:48;13.57;;;6.22;;
24644;SDS011;12780;45.502;9.146;2022-07-29T15:43:14;12.02;;;6.95;;
24644;SDS011;12780;45.502;9.146;2022-07-29T15:45:40;13.30;;;8.25;;
24644;SDS011;12780;45.502;9.146;2022-07-29T15:48:26;15.13;;;8.43;;
24644;SDS011;12780;45.502;9.146;2022-07-29T15:50:52;12.55;;;7.35;;
24644;SDS011;12780;45.502;9.146;2022-07-29T15:53:17;15.65;;;7.88;;
24644;SDS011;12780;45.502;9.146;2022-07-29T15:55:43;14.70;;;9.15;;
24644;SDS011;12780;45.502;9.146;2022-07-29T15:58:08;16.05;;;9.55;;